sensor_id;sensor_type;location;lat;lon;timestamp;P1;durP1;ratioP1;P2;durP2;ratioP2
67500;SDS011;54349;52.528;19.760;2023-04-15T00:01:10;5.00;;;3.20;;
67500;SDS011;54349;52.528;19.760;2023-04-15T00:03:39;4.60;;;2.90;;
67500;SDS011;54349;52.528;19.760;2023-04-15T00:06:11;5.10;;;2.80;;
67500;SDS011;54349;52.528;19.760;2023-04-15T00:08:40;4.50;;;2.80;;
67500;SDS011;54349;52.528;19.760;2023-04-15T00:11:09;5.10;;;2.90;;
67500;SDS011;54349;52.528;19.760;2023-04-15T00:13:39;4.20;;;2.80;;
67500;SDS011;54349;52.528;19.760;2023-04-15T00:16:08;4.40;;;2.70;;
67500;SDS011;54349;52.528;19.760;2023-04-15T00:18:37;4.50;;;3.00;;
67500;SDS011;54349;52.528;19.760;2023-04-15T00:21:06;5.30;;;3.10;;
67500;SDS011;54349;52.528;19.760;2023-04-15T00:23:35;4.70;;;3.00;;
67500;SDS011;54349;52.528;19.760;2023-04-15T00:26:04;4.90;;;3.10;;
67500;SDS011;54349;52.528;19.760;2023-04-15T00:28:33;4.50;;;2.80;;
67500;SDS011;54349;52.528;19.760;2023-04-15T00:31:03;4.60;;;3.00;;
67500;SDS011;54349;52.528;19.760;2023-04-15T00:33:31;5.00;;;3.20;;
67500;SDS011;54349;52.528;19.760;2023-04-15T00:35:59;4.70;;;3.10;;
67500;SDS011;54349;52.528;19.760;2023-04-15T00:38:28;4.80;;;2.80;;
67500;SDS011;54349;52.528;19.760;2023-04-15T00:40:56;4.70;;;3.10;;
67500;SDS011;54349;52.528;19.760;2023-04-15T00:43:25;4.80;;;3.30;;
67500;SDS011;54349;52.528;19.760;2023-04-15T00:45:55;4.40;;;3.10;;
67500;SDS011;54349;52.528;19.760;2023-04-15T00:48:27;4.40;;;3.00;;
67500;SDS011;54349;52.528;19.760;2023-04-15T00:50:56;4.00;;;2.90;;
67500;SDS011;54349;52.528;19.760;2023-04-15T00:53:25;5.30;;;2.90;;
67500;SDS011;54349;52.528;19.760;2023-04-15T00:55:53;4.80;;;3.20;;
67500;SDS011;54349;52.528;19.760;2023-04-15T00:58:22;5.50;;;3.30;;
67500;SDS011;54349;52.528;19.760;2023-04-15T01:00:54;4.50;;;2.80;;
67500;SDS011;54349;52.528;19.760;2023-04-15T01:03:23;5.80;;;3.10;;
67500;SDS011;54349;52.528;19.760;2023-04-15T01:05:52;4.90;;;3.10;;
67500;SDS011;54349;52.528;19.760;2023-04-15T01:08:28;4.90;;;3.10;;
67500;SDS011;54349;52.528;19.760;2023-04-15T01:11:00;4.70;;;3.10;;
67500;SDS011;54349;52.528;19.760;2023-04-15T01:13:33;4.80;;;3.00;;
67500;SDS011;54349;52.528;19.760;2023-04-15T01:16:02;4.60;;;3.20;;
67500;SDS011;54349;52.528;19.760;2023-04-15T01:18:31;5.40;;;3.20;;
67500;SDS011;54349;52.528;19.760;2023-04-15T01:21:00;4.70;;;3.00;;
67500;SDS011;54349;52.528;19.760;2023-04-15T01:23:34;4.90;;;3.00;;
67500;SDS011;54349;52.528;19.760;2023-04-15T01:26:07;4.80;;;3.20;;
67500;SDS011;54349;52.528;19.760;2023-04-15T01:28:36;5.20;;;3.40;;
67500;SDS011;54349;52.528;19.760;2023-04-15T01:31:12;4.70;;;3.00;;
67500;SDS011;54349;52.528;19.760;2023-04-15T01:33:42;4.70;;;3.10;;
67500;SDS011;54349;52.528;19.760;2023-04-15T01:36:10;5.20;;;3.20;;
67500;SDS011;54349;52.528;19.760;2023-04-15T01:38:39;4.50;;;3.10;;
67500;SDS011;54349;52.528;19.760;2023-04-15T01:41:08;5.20;;;3.10;;
67500;SDS011;54349;52.528;19.760;2023-04-15T01:43:36;4.30;;;3.00;;
67500;SDS011;54349;52.528;19.760;2023-04-15T01:46:05;4.50;;;3.00;;
67500;SDS011;54349;52.528;19.760;2023-04-15T01:48:34;5.60;;;3.10;;
67500;SDS011;54349;52.528;19.760;2023-04-15T01:51:03;6.30;;;3.30;;
67500;SDS011;54349;52.528;19.760;2023-04-15T01:53:31;4.90;;;3.40;;
67500;SDS011;54349;52.528;19.760;2023-04-15T01:56:03;4.40;;;2.90;;
67500;SDS011;54349;52.528;19.760;2023-04-15T01:58:31;4.60;;;3.10;;
67500;SDS011;54349;52.528;19.760;2023-04-15T02:01:00;4.70;;;2.90;;
67500;SDS011;54349;52.528;19.760;2023-04-15T02:03:31;5.20;;;3.00;;
67500;SDS011;54349;52.528;19.760;2023-04-15T02:05:59;5.40;;;3.30;;
67500;SDS011;54349;52.528;19.760;2023-04-15T02:08:29;4.70;;;3.00;;
67500;SDS011;54349;52.528;19.760;2023-04-15T02:10:57;4.90;;;3.20;;
67500;SDS011;54349;52.528;19.760;2023-04-15T02:13:29;5.00;;;3.10;;
67500;SDS011;54349;52.528;19.760;2023-04-15T02:15:57;4.60;;;2.90;;
67500;SDS011;54349;52.528;19.760;2023-04-15T02:18:26;5.60;;;3.10;;
67500;SDS011;54349;52.528;19.760;2023-04-15T02:20:58;4.40;;;3.10;;
67500;SDS011;54349;52.528;19.760;2023-04-15T02:23:26;5.00;;;3.20;;
67500;SDS011;54349;52.528;19.760;2023-04-15T02:25:55;5.30;;;3.00;;
67500;SDS011;54349;52.528;19.760;2023-04-15T02:28:24;6.10;;;3.50;;
67500;SDS011;54349;52.528;19.760;2023-04-15T02:30:52;4.40;;;3.00;;
67500;SDS011;54349;52.528;19.760;2023-04-15T02:33:23;4.80;;;3.20;;
67500;SDS011;54349;52.528;19.760;2023-04-15T02:35:52;4.60;;;3.00;;
67500;SDS011;54349;52.528;19.760;2023-04-15T02:38:21;4.90;;;3.30;;
67500;SDS011;54349;52.528;19.760;2023-04-15T02:40:51;4.30;;;3.00;;
67500;SDS011;54349;52.528;19.760;2023-04-15T02:43:21;4.70;;;3.00;;
67500;SDS011;54349;52.528;19.760;2023-04-15T02:45:50;4.80;;;3.00;;
67500;SDS011;54349;52.528;19.760;2023-04-15T02:48:20;4.30;;;2.90;;
67500;SDS011;54349;52.528;19.760;2023-04-15T02:50:49;4.60;;;3.20;;
67500;SDS011;54349;52.528;19.760;2023-04-15T02:53:20;4.70;;;3.00;;
67500;SDS011;54349;52.528;19.760;2023-04-15T02:55:49;4.70;;;3.00;;
67500;SDS011;54349;52.528;19.760;2023-04-15T02:58:18;5.00;;;3.20;;
67500;SDS011;54349;52.528;19.760;2023-04-15T03:00:46;4.20;;;3.00;;
67500;SDS011;54349;52.528;19.760;2023-04-15T03:03:15;4.70;;;3.30;;
67500;SDS011;54349;52.528;19.760;2023-04-15T03:05:44;4.50;;;2.80;;
67500;SDS011;54349;52.528;19.760;2023-04-15T03:08:12;6.30;;;3.00;;
67500;SDS011;54349;52.528;19.760;2023-04-15T03:10:42;4.80;;;3.10;;
67500;SDS011;54349;52.528;19.760;2023-04-15T03:13:12;4.90;;;3.10;;
67500;SDS011;54349;52.528;19.760;2023-04-15T03:15:41;5.10;;;3.40;;
67500;SDS011;54349;52.528;19.760;2023-04-15T03:18:10;5.40;;;3.50;;
67500;SDS011;54349;52.528;19.760;2023-04-15T03:20:40;5.20;;;3.20;;
67500;SDS011;54349;52.528;19.760;2023-04-15T03:23:09;5.60;;;3.40;;
67500;SDS011;54349;52.528;19.760;2023-04-15T03:25:37;4.60;;;3.20;;
67500;SDS011;54349;52.528;19.760;2023-04-15T03:28:06;4.50;;;3.00;;
67500;SDS011;54349;52.528;19.760;2023-04-15T03:30:35;5.30;;;3.20;;
67500;SDS011;54349;52.528;19.760;2023-04-15T03:33:03;5.80;;;3.50;;
67500;SDS011;54349;52.528;19.760;2023-04-15T03:35:33;4.60;;;3.10;;
67500;SDS011;54349;52.528;19.760;2023-04-15T03:38:01;5.10;;;3.20;;
67500;SDS011;54349;52.528;19.760;2023-04-15T03:40:30;4.80;;;3.10;;
67500;SDS011;54349;52.528;19.760;2023-04-15T03:42:59;4.90;;;3.40;;
67500;SDS011;54349;52.528;19.760;2023-04-15T03:45:27;4.50;;;3.20;;
67500;SDS011;54349;52.528;19.760;2023-04-15T03:47:56;4.90;;;3.20;;
67500;SDS011;54349;52.528;19.760;2023-04-15T03:50:38;5.30;;;3.50;;
67500;SDS011;54349;52.528;19.760;2023-04-15T03:53:08;4.50;;;3.10;;
67500;SDS011;54349;52.528;19.760;2023-04-15T03:55:37;4.60;;;3.30;;
67500;SDS011;54349;52.528;19.760;2023-04-15T03:58:05;4.40;;;2.90;;
67500;SDS011;54349;52.528;19.760;2023-04-15T04:00:33;5.40;;;3.10;;
67500;SDS011;54349;52.528;19.760;2023-04-15T04:03:01;5.30;;;3.30;;
67500;SDS011;54349;52.528;19.760;2023-04-15T04:05:31;5.30;;;3.30;;
67500;SDS011;54349;52.528;19.760;2023-04-15T04:08:00;4.60;;;3.10;;
67500;SDS011;54349;52.528;19.760;2023-04-15T04:10:28;5.20;;;2.90;;
67500;SDS011;54349;52.528;19.760;2023-04-15T04:12:57;5.10;;;3.20;;
67500;SDS011;54349;52.528;19.760;2023-04-15T04:15:29;5.10;;;3.40;;
67500;SDS011;54349;52.528;19.760;2023-04-15T04:17:59;5.10;;;3.10;;
67500;SDS011;54349;52.528;19.760;2023-04-15T04:20:31;4.50;;;2.90;;
67500;SDS011;54349;52.528;19.760;2023-04-15T04:23:01;5.10;;;3.10;;
67500;SDS011;54349;52.528;19.760;2023-04-15T04:25:30;4.60;;;2.80;;
67500;SDS011;54349;52.528;19.760;2023-04-15T04:27:59;6.00;;;3.60;;
67500;SDS011;54349;52.528;19.760;2023-04-15T04:30:30;5.30;;;3.40;;
67500;SDS011;54349;52.528;19.760;2023-04-15T04:32:58;4.60;;;3.00;;
67500;SDS011;54349;52.528;19.760;2023-04-15T04:35:26;4.70;;;3.20;;
67500;SDS011;54349;52.528;19.760;2023-04-15T04:37:54;5.60;;;3.00;;
67500;SDS011;54349;52.528;19.760;2023-04-15T04:40:23;4.90;;;3.00;;
67500;SDS011;54349;52.528;19.760;2023-04-15T04:42:52;4.70;;;3.30;;
67500;SDS011;54349;52.528;19.760;2023-04-15T04:45:22;5.00;;;3.20;;
67500;SDS011;54349;52.528;19.760;2023-04-15T04:47:50;5.00;;;3.40;;
67500;SDS011;54349;52.528;19.760;2023-04-15T04:50:19;4.60;;;3.10;;
67500;SDS011;54349;52.528;19.760;2023-04-15T04:52:48;4.70;;;3.00;;
67500;SDS011;54349;52.528;19.760;2023-04-15T04:55:18;6.00;;;3.30;;
67500;SDS011;54349;52.528;19.760;2023-04-15T04:57:51;4.90;;;3.30;;
67500;SDS011;54349;52.528;19.760;2023-04-15T05:00:22;5.10;;;3.30;;
67500;SDS011;54349;52.528;19.760;2023-04-15T05:02:52;5.30;;;3.60;;
67500;SDS011;54349;52.528;19.760;2023-04-15T05:05:23;5.10;;;3.30;;
67500;SDS011;54349;52.528;19.760;2023-04-15T05:07:51;4.70;;;3.20;;
67500;SDS011;54349;52.528;19.760;2023-04-15T05:10:21;4.20;;;3.00;;
67500;SDS011;54349;52.528;19.760;2023-04-15T05:12:51;3.70;;;2.70;;
67500;SDS011;54349;52.528;19.760;2023-04-15T05:15:20;5.20;;;3.40;;
67500;SDS011;54349;52.528;19.760;2023-04-15T05:17:50;5.00;;;3.40;;
67500;SDS011;54349;52.528;19.760;2023-04-15T05:20:20;5.10;;;3.20;;
67500;SDS011;54349;52.528;19.760;2023-04-15T05:22:50;4.70;;;3.10;;
67500;SDS011;54349;52.528;19.760;2023-04-15T05:25:19;5.00;;;3.20;;
67500;SDS011;54349;52.528;19.760;2023-04-15T05:27:51;5.40;;;3.40;;
67500;SDS011;54349;52.528;19.760;2023-04-15T05:30:19;5.50;;;3.40;;
67500;SDS011;54349;52.528;19.760;2023-04-15T05:32:50;5.10;;;3.30;;
67500;SDS011;54349;52.528;19.760;2023-04-15T05:35:18;4.40;;;3.10;;
67500;SDS011;54349;52.528;19.760;2023-04-15T05:37:47;6.10;;;3.40;;
67500;SDS011;54349;52.528;19.760;2023-04-15T05:40:17;4.90;;;3.20;;
67500;SDS011;54349;52.528;19.760;2023-04-15T05:42:45;4.60;;;3.10;;
67500;SDS011;54349;52.528;19.760;2023-04-15T05:45:14;4.60;;;3.00;;
67500;SDS011;54349;52.528;19.760;2023-04-15T05:47:45;5.00;;;3.10;;
67500;SDS011;54349;52.528;19.760;2023-04-15T05:50:15;5.10;;;3.40;;
67500;SDS011;54349;52.528;19.760;2023-04-15T05:52:45;4.40;;;3.00;;
67500;SDS011;54349;52.528;19.760;2023-04-15T05:55:16;4.90;;;3.40;;
67500;SDS011;54349;52.528;19.760;2023-04-15T05:57:45;5.00;;;3.20;;
67500;SDS011;54349;52.528;19.760;2023-04-15T06:00:18;4.70;;;3.00;;
67500;SDS011;54349;52.528;19.760;2023-04-15T06:02:52;5.10;;;3.30;;
67500;SDS011;54349;52.528;19.760;2023-04-15T06:05:22;5.30;;;3.50;;
67500;SDS011;54349;52.528;19.760;2023-04-15T06:07:51;4.90;;;3.30;;
67500;SDS011;54349;52.528;19.760;2023-04-15T06:10:23;5.10;;;3.30;;
67500;SDS011;54349;52.528;19.760;2023-04-15T06:12:55;4.40;;;3.00;;
67500;SDS011;54349;52.528;19.760;2023-04-15T06:15:32;5.10;;;3.20;;
67500;SDS011;54349;52.528;19.760;2023-04-15T06:18:04;5.00;;;3.20;;
67500;SDS011;54349;52.528;19.760;2023-04-15T06:20:33;4.70;;;3.00;;
67500;SDS011;54349;52.528;19.760;2023-04-15T06:23:02;5.00;;;3.50;;
67500;SDS011;54349;52.528;19.760;2023-04-15T06:25:33;4.70;;;3.20;;
67500;SDS011;54349;52.528;19.760;2023-04-15T06:28:04;5.10;;;3.50;;
67500;SDS011;54349;52.528;19.760;2023-04-15T06:30:36;5.00;;;3.50;;
67500;SDS011;54349;52.528;19.760;2023-04-15T06:33:07;4.20;;;2.90;;
67500;SDS011;54349;52.528;19.760;2023-04-15T06:35:37;4.90;;;3.30;;
67500;SDS011;54349;52.528;19.760;2023-04-15T06:38:06;4.70;;;3.30;;
67500;SDS011;54349;52.528;19.760;2023-04-15T06:40:36;5.10;;;3.30;;
67500;SDS011;54349;52.528;19.760;2023-04-15T06:43:05;4.90;;;3.20;;
67500;SDS011;54349;52.528;19.760;2023-04-15T06:45:36;4.80;;;3.50;;
67500;SDS011;54349;52.528;19.760;2023-04-15T06:48:04;5.00;;;3.20;;
67500;SDS011;54349;52.528;19.760;2023-04-15T06:50:33;4.60;;;3.40;;
67500;SDS011;54349;52.528;19.760;2023-04-15T06:53:05;4.90;;;3.40;;
67500;SDS011;54349;52.528;19.760;2023-04-15T06:55:35;5.40;;;3.50;;
67500;SDS011;54349;52.528;19.760;2023-04-15T06:58:04;5.20;;;3.30;;
67500;SDS011;54349;52.528;19.760;2023-04-15T07:00:35;5.50;;;3.40;;
67500;SDS011;54349;52.528;19.760;2023-04-15T07:03:07;5.70;;;3.40;;
67500;SDS011;54349;52.528;19.760;2023-04-15T07:05:39;5.70;;;3.30;;
67500;SDS011;54349;52.528;19.760;2023-04-15T07:08:09;5.70;;;3.90;;
67500;SDS011;54349;52.528;19.760;2023-04-15T07:10:39;5.80;;;3.60;;
67500;SDS011;54349;52.528;19.760;2023-04-15T07:13:11;6.10;;;3.60;;
67500;SDS011;54349;52.528;19.760;2023-04-15T07:15:40;5.00;;;3.40;;
67500;SDS011;54349;52.528;19.760;2023-04-15T07:18:09;7.00;;;3.70;;
67500;SDS011;54349;52.528;19.760;2023-04-15T07:20:39;5.80;;;3.60;;
67500;SDS011;54349;52.528;19.760;2023-04-15T07:23:09;10.30;;;4.00;;
67500;SDS011;54349;52.528;19.760;2023-04-15T07:25:39;7.60;;;3.90;;
67500;SDS011;54349;52.528;19.760;2023-04-15T07:28:14;7.40;;;3.80;;
67500;SDS011;54349;52.528;19.760;2023-04-15T07:30:43;8.20;;;3.60;;
67500;SDS011;54349;52.528;19.760;2023-04-15T07:33:13;14.30;;;3.60;;
67500;SDS011;54349;52.528;19.760;2023-04-15T07:35:43;6.00;;;3.50;;
67500;SDS011;54349;52.528;19.760;2023-04-15T07:38:15;7.20;;;3.80;;
67500;SDS011;54349;52.528;19.760;2023-04-15T07:43:19;5.60;;;3.50;;
67500;SDS011;54349;52.528;19.760;2023-04-15T07:45:48;7.70;;;4.00;;
67500;SDS011;54349;52.528;19.760;2023-04-15T07:48:17;6.20;;;3.60;;
67500;SDS011;54349;52.528;19.760;2023-04-15T07:50:50;7.30;;;3.70;;
67500;SDS011;54349;52.528;19.760;2023-04-15T07:53:18;6.20;;;3.50;;
67500;SDS011;54349;52.528;19.760;2023-04-15T07:55:50;7.00;;;3.40;;
67500;SDS011;54349;52.528;19.760;2023-04-15T07:58:21;8.20;;;3.60;;
67500;SDS011;54349;52.528;19.760;2023-04-15T08:00:50;5.50;;;3.20;;
67500;SDS011;54349;52.528;19.760;2023-04-15T08:03:21;6.60;;;3.50;;
67500;SDS011;54349;52.528;19.760;2023-04-15T08:05:51;7.40;;;3.10;;
67500;SDS011;54349;52.528;19.760;2023-04-15T08:08:22;5.50;;;3.50;;
67500;SDS011;54349;52.528;19.760;2023-04-15T08:10:51;5.80;;;3.30;;
67500;SDS011;54349;52.528;19.760;2023-04-15T08:13:24;5.50;;;3.20;;
67500;SDS011;54349;52.528;19.760;2023-04-15T08:18:55;6.20;;;3.50;;
67500;SDS011;54349;52.528;19.760;2023-04-15T08:21:25;6.80;;;3.40;;
67500;SDS011;54349;52.528;19.760;2023-04-15T08:23:55;7.90;;;3.90;;
67500;SDS011;54349;52.528;19.760;2023-04-15T08:26:25;5.00;;;3.30;;
67500;SDS011;54349;52.528;19.760;2023-04-15T08:28:55;6.90;;;3.40;;
67500;SDS011;54349;52.528;19.760;2023-04-15T08:31:25;6.50;;;3.20;;
67500;SDS011;54349;52.528;19.760;2023-04-15T08:33:57;5.30;;;3.50;;
67500;SDS011;54349;52.528;19.760;2023-04-15T08:36:29;4.50;;;3.00;;
67500;SDS011;54349;52.528;19.760;2023-04-15T08:38:59;5.70;;;3.30;;
67500;SDS011;54349;52.528;19.760;2023-04-15T08:41:46;5.50;;;3.60;;
67500;SDS011;54349;52.528;19.760;2023-04-15T08:44:19;5.30;;;3.20;;
67500;SDS011;54349;52.528;19.760;2023-04-15T08:46:59;5.90;;;3.40;;
67500;SDS011;54349;52.528;19.760;2023-04-15T08:49:47;5.50;;;3.50;;
67500;SDS011;54349;52.528;19.760;2023-04-15T08:52:21;7.80;;;3.30;;
67500;SDS011;54349;52.528;19.760;2023-04-15T08:54:54;6.00;;;2.90;;
67500;SDS011;54349;52.528;19.760;2023-04-15T08:57:27;5.00;;;3.00;;
67500;SDS011;54349;52.528;19.760;2023-04-15T09:00:01;5.90;;;3.20;;
67500;SDS011;54349;52.528;19.760;2023-04-15T09:02:34;6.40;;;3.50;;
67500;SDS011;54349;52.528;19.760;2023-04-15T09:05:03;4.50;;;3.20;;
67500;SDS011;54349;52.528;19.760;2023-04-15T09:07:35;6.00;;;3.40;;
67500;SDS011;54349;52.528;19.760;2023-04-15T09:10:04;5.60;;;3.30;;
67500;SDS011;54349;52.528;19.760;2023-04-15T09:12:34;5.50;;;3.20;;
67500;SDS011;54349;52.528;19.760;2023-04-15T09:15:06;5.60;;;3.20;;
67500;SDS011;54349;52.528;19.760;2023-04-15T09:17:43;5.10;;;3.30;;
67500;SDS011;54349;52.528;19.760;2023-04-15T09:20:14;5.60;;;3.20;;
67500;SDS011;54349;52.528;19.760;2023-04-15T09:22:49;5.90;;;3.10;;
67500;SDS011;54349;52.528;19.760;2023-04-15T09:27:52;5.30;;;3.20;;
67500;SDS011;54349;52.528;19.760;2023-04-15T09:30:28;5.40;;;3.10;;
67500;SDS011;54349;52.528;19.760;2023-04-15T09:33:01;5.10;;;3.30;;
67500;SDS011;54349;52.528;19.760;2023-04-15T09:35:37;4.70;;;3.20;;
67500;SDS011;54349;52.528;19.760;2023-04-15T09:38:08;6.00;;;3.20;;
67500;SDS011;54349;52.528;19.760;2023-04-15T09:40:41;5.40;;;3.10;;
67500;SDS011;54349;52.528;19.760;2023-04-15T09:43:10;5.70;;;3.10;;
67500;SDS011;54349;52.528;19.760;2023-04-15T09:45:50;6.40;;;3.20;;
67500;SDS011;54349;52.528;19.760;2023-04-15T09:48:24;6.40;;;3.30;;
67500;SDS011;54349;52.528;19.760;2023-04-15T09:51:00;6.80;;;3.20;;
67500;SDS011;54349;52.528;19.760;2023-04-15T09:53:33;6.30;;;3.50;;
67500;SDS011;54349;52.528;19.760;2023-04-15T09:56:03;4.80;;;3.20;;
67500;SDS011;54349;52.528;19.760;2023-04-15T09:58:34;7.90;;;3.30;;
67500;SDS011;54349;52.528;19.760;2023-04-15T10:01:06;6.70;;;2.90;;
67500;SDS011;54349;52.528;19.760;2023-04-15T10:03:36;5.30;;;3.20;;
67500;SDS011;54349;52.528;19.760;2023-04-15T10:06:09;5.70;;;3.00;;
67500;SDS011;54349;52.528;19.760;2023-04-15T10:08:38;5.10;;;3.10;;
67500;SDS011;54349;52.528;19.760;2023-04-15T10:11:09;5.70;;;3.00;;
67500;SDS011;54349;52.528;19.760;2023-04-15T10:13:40;4.20;;;3.00;;
67500;SDS011;54349;52.528;19.760;2023-04-15T10:16:13;5.30;;;2.80;;
67500;SDS011;54349;52.528;19.760;2023-04-15T10:18:44;5.00;;;3.10;;
67500;SDS011;54349;52.528;19.760;2023-04-15T10:21:16;5.30;;;3.30;;
67500;SDS011;54349;52.528;19.760;2023-04-15T10:23:47;5.20;;;3.30;;
67500;SDS011;54349;52.528;19.760;2023-04-15T10:26:17;6.20;;;3.60;;
67500;SDS011;54349;52.528;19.760;2023-04-15T10:28:46;6.10;;;3.20;;
67500;SDS011;54349;52.528;19.760;2023-04-15T10:31:19;6.80;;;3.50;;
67500;SDS011;54349;52.528;19.760;2023-04-15T10:33:52;8.40;;;4.00;;
67500;SDS011;54349;52.528;19.760;2023-04-15T10:36:21;6.90;;;3.30;;
67500;SDS011;54349;52.528;19.760;2023-04-15T10:38:50;8.30;;;3.70;;
67500;SDS011;54349;52.528;19.760;2023-04-15T10:41:23;7.20;;;3.60;;
67500;SDS011;54349;52.528;19.760;2023-04-15T10:44:00;7.30;;;3.50;;
67500;SDS011;54349;52.528;19.760;2023-04-15T10:46:40;6.90;;;3.70;;
67500;SDS011;54349;52.528;19.760;2023-04-15T10:49:14;6.80;;;3.60;;
67500;SDS011;54349;52.528;19.760;2023-04-15T10:51:48;9.00;;;4.00;;
67500;SDS011;54349;52.528;19.760;2023-04-15T11:02:41;9.30;;;4.10;;
67500;SDS011;54349;52.528;19.760;2023-04-15T11:05:15;7.20;;;3.80;;
67500;SDS011;54349;52.528;19.760;2023-04-15T11:12:51;8.40;;;4.10;;
67500;SDS011;54349;52.528;19.760;2023-04-15T11:15:45;6.80;;;3.70;;
67500;SDS011;54349;52.528;19.760;2023-04-15T11:18:19;8.10;;;3.90;;
67500;SDS011;54349;52.528;19.760;2023-04-15T11:20:57;6.80;;;3.70;;
67500;SDS011;54349;52.528;19.760;2023-04-15T11:23:33;7.60;;;3.70;;
67500;SDS011;54349;52.528;19.760;2023-04-15T11:26:06;7.90;;;4.20;;
67500;SDS011;54349;52.528;19.760;2023-04-15T11:28:38;6.00;;;3.40;;
67500;SDS011;54349;52.528;19.760;2023-04-15T11:31:17;7.20;;;3.80;;
67500;SDS011;54349;52.528;19.760;2023-04-15T11:33:56;6.80;;;3.80;;
67500;SDS011;54349;52.528;19.760;2023-04-15T11:36:28;6.80;;;3.70;;
67500;SDS011;54349;52.528;19.760;2023-04-15T11:38:59;7.20;;;3.50;;
67500;SDS011;54349;52.528;19.760;2023-04-15T11:41:28;6.10;;;3.30;;
67500;SDS011;54349;52.528;19.760;2023-04-15T11:43:57;6.90;;;3.00;;
67500;SDS011;54349;52.528;19.760;2023-04-15T11:46:29;5.80;;;3.40;;
67500;SDS011;54349;52.528;19.760;2023-04-15T11:49:00;5.30;;;3.10;;
67500;SDS011;54349;52.528;19.760;2023-04-15T11:51:32;6.30;;;2.80;;
67500;SDS011;54349;52.528;19.760;2023-04-15T11:54:03;5.70;;;3.20;;
67500;SDS011;54349;52.528;19.760;2023-04-15T11:56:34;6.60;;;3.00;;
67500;SDS011;54349;52.528;19.760;2023-04-15T11:59:02;6.00;;;3.00;;
67500;SDS011;54349;52.528;19.760;2023-04-15T12:01:40;7.20;;;3.30;;
67500;SDS011;54349;52.528;19.760;2023-04-15T12:04:17;7.30;;;3.10;;
67500;SDS011;54349;52.528;19.760;2023-04-15T12:06:52;6.00;;;3.00;;
67500;SDS011;54349;52.528;19.760;2023-04-15T12:09:22;5.70;;;2.80;;
67500;SDS011;54349;52.528;19.760;2023-04-15T12:11:51;6.20;;;3.20;;
67500;SDS011;54349;52.528;19.760;2023-04-15T12:14:30;4.70;;;2.80;;
67500;SDS011;54349;52.528;19.760;2023-04-15T12:17:04;5.80;;;2.80;;
67500;SDS011;54349;52.528;19.760;2023-04-15T12:19:36;5.90;;;2.70;;
67500;SDS011;54349;52.528;19.760;2023-04-15T12:22:13;5.50;;;2.70;;
67500;SDS011;54349;52.528;19.760;2023-04-15T12:24:44;5.50;;;2.90;;
67500;SDS011;54349;52.528;19.760;2023-04-15T12:27:17;4.70;;;2.60;;
67500;SDS011;54349;52.528;19.760;2023-04-15T12:29:46;5.00;;;3.00;;
67500;SDS011;54349;52.528;19.760;2023-04-15T12:32:17;5.00;;;2.60;;
67500;SDS011;54349;52.528;19.760;2023-04-15T12:34:51;4.70;;;2.70;;
67500;SDS011;54349;52.528;19.760;2023-04-15T12:37:22;4.80;;;2.60;;
67500;SDS011;54349;52.528;19.760;2023-04-15T12:39:52;4.90;;;2.50;;
67500;SDS011;54349;52.528;19.760;2023-04-15T12:42:24;6.90;;;2.60;;
67500;SDS011;54349;52.528;19.760;2023-04-15T12:44:53;4.90;;;2.40;;
67500;SDS011;54349;52.528;19.760;2023-04-15T12:47:22;5.30;;;2.60;;
67500;SDS011;54349;52.528;19.760;2023-04-15T12:49:50;4.30;;;2.50;;
67500;SDS011;54349;52.528;19.760;2023-04-15T12:52:19;6.60;;;2.80;;
67500;SDS011;54349;52.528;19.760;2023-04-15T12:54:48;4.90;;;2.60;;
67500;SDS011;54349;52.528;19.760;2023-04-15T12:57:18;4.00;;;2.10;;
67500;SDS011;54349;52.528;19.760;2023-04-15T12:59:49;4.50;;;2.40;;
67500;SDS011;54349;52.528;19.760;2023-04-15T13:02:18;4.00;;;2.40;;
67500;SDS011;54349;52.528;19.760;2023-04-15T13:04:48;5.70;;;2.60;;
67500;SDS011;54349;52.528;19.760;2023-04-15T13:07:20;4.70;;;2.30;;
67500;SDS011;54349;52.528;19.760;2023-04-15T13:09:49;4.80;;;2.50;;
67500;SDS011;54349;52.528;19.760;2023-04-15T13:12:20;4.60;;;2.50;;
67500;SDS011;54349;52.528;19.760;2023-04-15T13:14:50;4.10;;;2.40;;
67500;SDS011;54349;52.528;19.760;2023-04-15T13:17:21;4.80;;;2.60;;
67500;SDS011;54349;52.528;19.760;2023-04-15T13:19:50;4.00;;;2.30;;
67500;SDS011;54349;52.528;19.760;2023-04-15T13:22:22;3.40;;;2.20;;
67500;SDS011;54349;52.528;19.760;2023-04-15T13:24:52;2.80;;;2.00;;
67500;SDS011;54349;52.528;19.760;2023-04-15T13:27:21;5.40;;;2.40;;
67500;SDS011;54349;52.528;19.760;2023-04-15T13:29:51;3.70;;;2.30;;
67500;SDS011;54349;52.528;19.760;2023-04-15T13:32:19;4.00;;;2.30;;
67500;SDS011;54349;52.528;19.760;2023-04-15T13:34:50;3.40;;;2.30;;
67500;SDS011;54349;52.528;19.760;2023-04-15T13:37:26;4.40;;;2.20;;
67500;SDS011;54349;52.528;19.760;2023-04-15T13:39:59;3.70;;;2.10;;
67500;SDS011;54349;52.528;19.760;2023-04-15T13:42:29;3.60;;;2.20;;
67500;SDS011;54349;52.528;19.760;2023-04-15T13:44:57;3.30;;;2.20;;
67500;SDS011;54349;52.528;19.760;2023-04-15T13:47:26;3.00;;;2.10;;
67500;SDS011;54349;52.528;19.760;2023-04-15T13:49:56;3.90;;;2.20;;
67500;SDS011;54349;52.528;19.760;2023-04-15T13:52:25;3.70;;;2.20;;
67500;SDS011;54349;52.528;19.760;2023-04-15T13:54:55;3.40;;;2.00;;
67500;SDS011;54349;52.528;19.760;2023-04-15T13:57:44;3.60;;;2.20;;
67500;SDS011;54349;52.528;19.760;2023-04-15T14:00:14;4.00;;;2.30;;
67500;SDS011;54349;52.528;19.760;2023-04-15T14:02:44;3.20;;;2.10;;
67500;SDS011;54349;52.528;19.760;2023-04-15T14:05:14;2.90;;;1.90;;
67500;SDS011;54349;52.528;19.760;2023-04-15T14:07:43;4.30;;;2.40;;
67500;SDS011;54349;52.528;19.760;2023-04-15T14:10:11;3.40;;;2.20;;
67500;SDS011;54349;52.528;19.760;2023-04-15T14:12:41;3.70;;;2.10;;
67500;SDS011;54349;52.528;19.760;2023-04-15T14:15:10;3.00;;;2.10;;
67500;SDS011;54349;52.528;19.760;2023-04-15T14:17:42;3.80;;;2.20;;
67500;SDS011;54349;52.528;19.760;2023-04-15T14:20:11;3.90;;;2.20;;
67500;SDS011;54349;52.528;19.760;2023-04-15T14:22:42;3.60;;;2.20;;
67500;SDS011;54349;52.528;19.760;2023-04-15T14:25:11;3.00;;;2.00;;
67500;SDS011;54349;52.528;19.760;2023-04-15T14:27:58;3.20;;;2.10;;
67500;SDS011;54349;52.528;19.760;2023-04-15T14:30:29;3.70;;;2.10;;
67500;SDS011;54349;52.528;19.760;2023-04-15T14:32:59;3.40;;;2.20;;
67500;SDS011;54349;52.528;19.760;2023-04-15T14:35:29;3.90;;;2.20;;
67500;SDS011;54349;52.528;19.760;2023-04-15T14:37:57;3.80;;;2.40;;
67500;SDS011;54349;52.528;19.760;2023-04-15T14:40:26;3.40;;;2.10;;
67500;SDS011;54349;52.528;19.760;2023-04-15T14:42:56;4.00;;;2.10;;
67500;SDS011;54349;52.528;19.760;2023-04-15T14:45:26;4.10;;;2.40;;
67500;SDS011;54349;52.528;19.760;2023-04-15T14:47:55;3.30;;;2.00;;
67500;SDS011;54349;52.528;19.760;2023-04-15T14:50:25;3.30;;;2.00;;
67500;SDS011;54349;52.528;19.760;2023-04-15T14:52:54;3.60;;;2.00;;
67500;SDS011;54349;52.528;19.760;2023-04-15T14:55:24;3.20;;;2.00;;
67500;SDS011;54349;52.528;19.760;2023-04-15T14:57:53;4.30;;;2.30;;
67500;SDS011;54349;52.528;19.760;2023-04-15T15:00:21;3.80;;;2.20;;
67500;SDS011;54349;52.528;19.760;2023-04-15T15:02:50;3.50;;;2.20;;
67500;SDS011;54349;52.528;19.760;2023-04-15T15:05:21;3.40;;;2.00;;
67500;SDS011;54349;52.528;19.760;2023-04-15T15:07:50;3.40;;;2.00;;
67500;SDS011;54349;52.528;19.760;2023-04-15T15:10:19;3.90;;;2.00;;
67500;SDS011;54349;52.528;19.760;2023-04-15T15:13:10;3.80;;;2.10;;
67500;SDS011;54349;52.528;19.760;2023-04-15T15:15:39;3.70;;;2.00;;